Time;durP1;ratioP1;P1;durP2;ratioP2;P2;SDS_P1;SDS_P2;PMS_P1;PMS_P2;Temp;Humidity;BMP_temperature;BMP_pressure;BME280_temperature;BME280_humidity;BME280_pressure;Samples;Min_cycle;Max_cycle;Signal;HPM_P1;HPM_P2
2021/06/14 00:01:03;;;;;;;0.40;0.30;;;16.70;94.70;;;;;;4972164;28;20428;-76
2021/06/14 00:03:29;;;;;;;0.40;0.20;;;16.60;94.80;;;;;;4973186;28;20392;-76
2021/06/14 00:05:55;;;;;;;0.40;0.30;;;16.50;95.20;;;;;;4972352;28;20384;-76
2021/06/14 00:08:23;;;;;;;0.40;0.30;;;16.40;96.80;;;;;;4972685;28;20392;-76
2021/06/14 00:10:52;;;;;;;0.40;0.20;;;16.30;96.10;;;;;;4971674;28;20392;-76
2021/06/14 00:13:20;;;;;;;0.40;0.30;;;16.20;97.80;;;;;;4955006;28;20433;-76
2021/06/14 00:15:47;;;;;;;0.40;0.20;;;16.20;96.00;;;;;;4954919;28;20401;-76
2021/06/14 00:18:13;;;;;;;0.40;0.30;;;16.20;97.40;;;;;;4972932;28;20385;-77
2021/06/14 00:20:41;;;;;;;0.40;0.20;;;16.20;97.10;;;;;;4972686;28;20395;-78
2021/06/14 00:23:09;;;;;;;0.40;0.20;;;16.30;96.60;;;;;;4972433;28;20423;-76
2021/06/14 00:25:35;;;;;;;0.40;0.20;;;16.20;96.00;;;;;;4972888;28;20389;-76
2021/06/14 00:28:02;;;;;;;0.40;0.30;;;16.20;95.90;;;;;;4986911;28;20392;-76
2021/06/14 00:30:33;;;;;;;0.40;0.30;;;16.10;97.10;;;;;;4971714;28;20463;-76
2021/06/14 00:32:59;;;;;;;0.40;0.30;;;16.10;97.00;;;;;;4971978;28;20469;-76
2021/06/14 00:35:25;;;;;;;0.40;0.30;;;16.20;96.60;;;;;;4973056;28;20404;-76
2021/06/14 00:37:52;;;;;;;0.40;0.20;;;16.30;96.50;;;;;;4954323;28;20396;-76
2021/06/14 00:40:18;;;;;;;0.40;0.20;;;16.20;95.10;;;;;;4972407;28;20391;-77
2021/06/14 00:42:45;;;;;;;0.40;0.30;;;16.20;96.00;;;;;;4971415;28;20447;-77
2021/06/14 00:45:15;;;;;;;0.40;0.30;;;16.20;95.90;;;;;;4972546;28;20424;-76
2021/06/14 00:47:42;;;;;;;0.40;0.20;;;16.00;95.90;;;;;;4954999;28;20393;-79
2021/06/14 00:50:08;;;;;;;0.40;0.20;;;16.20;95.50;;;;;;4970933;28;20381;-76
2021/06/14 00:52:34;;;;;;;0.40;0.30;;;16.10;96.10;;;;;;4954892;28;20413;-77
2021/06/14 00:55:00;;;;;;;0.40;0.30;;;16.20;95.00;;;;;;4971823;28;20400;-76
2021/06/14 00:57:28;;;;;;;0.40;0.30;;;16.20;94.80;;;;;;4972646;28;20392;-78
2021/06/14 00:59:54;;;;;;;0.40;0.20;;;16.20;95.30;;;;;;4971292;28;20868;-76
2021/06/14 01:02:19;;;;;;;0.40;0.30;;;16.10;96.70;;;;;;4971526;28;20482;-76
2021/06/14 01:04:45;;;;;;;0.40;0.20;;;16.10;95.90;;;;;;4971535;28;20833;-77
2021/06/14 01:07:12;;;;;;;0.40;0.30;;;16.00;96.40;;;;;;4972141;28;20747;-77
2021/06/14 01:09:38;;;;;;;0.40;0.20;;;16.00;95.50;;;;;;4972110;28;20401;-76
2021/06/14 01:12:09;;;;;;;0.40;0.30;;;16.00;95.80;;;;;;4971274;28;20384;-77
2021/06/14 01:15:06;;;;;;;0.40;0.30;;;16.00;95.90;;;;;;4954328;28;20439;-77
2021/06/14 01:17:46;;;;;;;0.40;0.30;;;15.90;96.30;;;;;;4970924;28;20407;-76
2021/06/14 01:20:45;;;;;;;0.40;0.20;;;15.90;97.30;;;;;;4971649;28;20385;-77
2021/06/14 01:23:24;;;;;;;0.40;0.30;;;15.80;95.60;;;;;;4978199;28;20788;-77
2021/06/14 01:26:02;;;;;;;0.40;0.30;;;15.90;96.30;;;;;;4976962;28;20938;-76
2021/06/14 01:28:32;;;;;;;0.40;0.20;;;15.70;96.20;;;;;;4971840;28;20392;-76
2021/06/14 01:30:59;;;;;;;0.40;0.30;;;15.70;96.00;;;;;;4971266;28;20392;-76
2021/06/14 01:33:28;;;;;;;0.40;0.30;;;15.80;96.40;;;;;;4972048;28;20496;-76
2021/06/14 01:36:08;;;;;;;0.40;0.30;;;15.80;96.20;;;;;;4971194;28;20411;-76
2021/06/14 01:38:35;;;;;;;0.40;0.22;;;15.80;95.30;;;;;;4971421;28;20403;-76
2021/06/14 01:41:07;;;;;;;0.40;0.30;;;15.80;95.80;;;;;;4971332;28;20475;-76
2021/06/14 01:43:35;;;;;;;0.40;0.23;;;15.80;95.10;;;;;;4970414;28;20987;-76
2021/06/14 01:46:18;;;;;;;0.40;0.20;;;15.90;95.40;;;;;;4971082;28;20380;-76
2021/06/14 01:48:44;;;;;;;0.40;0.20;;;15.90;94.70;;;;;;4956741;28;20794;-78
2021/06/14 01:51:11;;;;;;;0.40;0.30;;;15.80;96.20;;;;;;4971343;28;20388;-76
2021/06/14 01:53:38;;;;;;;0.40;0.20;;;15.70;95.50;;;;;;4954032;28;20420;-76
2021/06/14 01:56:06;;;;;;;0.40;0.30;;;16.10;95.10;;;;;;4970865;28;20411;-76
2021/06/14 01:58:32;;;;;;;0.40;0.30;;;15.70;94.80;;;;;;4971438;28;20384;-76
2021/06/14 02:01:00;;;;;;;0.40;0.20;;;15.80;95.00;;;;;;4970873;28;20388;-76
2021/06/14 02:03:28;;;;;;;0.40;0.40;;;15.80;93.90;;;;;;4971343;28;20392;-76
2021/06/14 02:05:55;;;;;;;0.40;0.20;;;15.80;94.60;;;;;;4970254;28;20404;-76
2021/06/14 02:08:22;;;;;;;0.40;0.20;;;15.80;94.70;;;;;;4971600;28;20396;-76
2021/06/14 02:10:48;;;;;;;0.40;0.20;;;15.90;94.00;;;;;;4969585;28;20403;-78
2021/06/14 02:13:15;;;;;;;0.40;0.20;;;16.00;94.40;;;;;;4970445;28;20532;-76
2021/06/14 02:15:40;;;;;;;0.40;0.30;;;16.00;93.70;;;;;;4971566;28;20411;-76
2021/06/14 02:18:09;;;;;;;0.40;0.20;;;16.00;93.40;;;;;;4953630;28;20396;-76
2021/06/14 02:20:35;;;;;;;0.40;0.20;;;16.00;94.40;;;;;;4971590;28;20396;-76
2021/06/14 02:23:01;;;;;;;0.40;0.23;;;15.90;93.80;;;;;;4970303;28;20392;-76
2021/06/14 02:25:27;;;;;;;0.40;0.20;;;15.90;93.90;;;;;;4971207;28;20443;-76
2021/06/14 02:27:53;;;;;;;0.40;0.30;;;15.80;94.10;;;;;;4970643;28;20437;-76
2021/06/14 02:30:24;;;;;;;0.40;0.20;;;15.80;94.20;;;;;;4969887;28;20876;-76
2021/06/14 02:32:51;;;;;;;0.40;0.30;;;15.70;94.30;;;;;;4970217;28;20430;-77
2021/06/14 02:35:17;;;;;;;0.40;0.30;;;15.60;95.20;;;;;;4973893;28;20388;-76
2021/06/14 02:37:48;;;;;;;0.40;0.20;;;15.70;95.30;;;;;;4974913;28;20860;-76
2021/06/14 02:40:15;;;;;;;0.40;0.30;;;15.60;95.00;;;;;;4974427;28;20396;-76
2021/06/14 02:42:44;;;;;;;0.40;0.20;;;15.60;94.70;;;;;;4974324;28;20474;-76
2021/06/14 02:45:10;;;;;;;0.40;0.20;;;15.50;94.20;;;;;;4956414;28;20423;-76
2021/06/14 02:47:37;;;;;;;0.40;0.30;;;15.50;97.50;;;;;;4974134;28;20399;-76
2021/06/14 02:50:09;;;;;;;0.40;0.22;;;15.50;94.90;;;;;;4973437;28;20388;-76
2021/06/14 02:52:38;;;;;;;0.40;0.20;;;15.50;96.50;;;;;;4973237;28;20420;-76
2021/06/14 02:55:07;;;;;;;0.40;0.30;;;15.50;95.10;;;;;;4973984;28;20792;-76
2021/06/14 02:57:35;;;;;;;0.40;0.20;;;15.50;95.10;;;;;;4974033;28;20388;-76
2021/06/14 03:00:01;;;;;;;0.40;0.20;;;15.40;96.10;;;;;;4973565;28;20722;-76
2021/06/14 03:02:27;;;;;;;0.40;0.30;;;15.50;94.60;;;;;;4974477;28;20399;-76
2021/06/14 03:04:53;;;;;;;0.40;0.20;;;15.50;94.00;;;;;;4972335;28;20399;-76
2021/06/14 03:07:23;;;;;;;0.40;0.30;;;15.50;94.70;;;;;;4988851;28;20471;-75
2021/06/14 03:09:51;;;;;;;0.40;0.30;;;15.30;94.50;;;;;;4973724;28;20427;-78
2021/06/14 03:12:18;;;;;;;0.40;0.30;;;15.20;95.10;;;;;;4973671;28;20503;-75
2021/06/14 03:14:45;;;;;;;0.40;0.30;;;15.40;95.30;;;;;;4973488;28;20416;-77
2021/06/14 03:17:12;;;;;;;0.40;0.20;;;15.40;96.50;;;;;;4973092;28;20918;-77
2021/06/14 03:19:38;;;;;;;0.40;0.20;;;15.30;95.20;;;;;;4973824;28;20391;-77
2021/06/14 03:22:09;;;;;;;0.40;0.20;;;15.30;96.30;;;;;;4973176;28;20380;-78
2021/06/14 03:24:37;;;;;;;0.40;0.20;;;15.20;97.10;;;;;;4988752;28;20386;-77
2021/06/14 03:27:04;;;;;;;0.40;0.30;;;15.30;95.80;;;;;;4972410;28;20522;-77
2021/06/14 03:29:30;;;;;;;0.40;0.20;;;15.10;97.10;;;;;;4974033;28;20926;-77
2021/06/14 03:31:56;;;;;;;0.40;0.30;;;15.00;95.20;;;;;;4987872;28;20393;-77
2021/06/14 03:34:24;;;;;;;0.40;0.20;;;15.00;96.10;;;;;;4973302;28;20400;-77
2021/06/14 03:36:49;;;;;;;0.40;0.20;;;15.10;96.90;;;;;;4972259;28;20399;-79
2021/06/14 03:39:19;;;;;;;0.40;0.20;;;15.10;97.00;;;;;;4973751;28;20744;-77
2021/06/14 03:41:46;;;;;;;0.40;0.30;;;14.90;99.10;;;;;;4973544;28;20388;-77
2021/06/14 03:44:12;;;;;;;0.40;0.20;;;14.90;97.50;;;;;;4972282;28;20412;-78
2021/06/14 03:46:38;;;;;;;0.40;0.30;;;14.80;98.70;;;;;;4972242;28;20523;-77
2021/06/14 03:49:05;;;;;;;0.40;0.20;;;14.80;97.60;;;;;;4985403;28;20868;-78
2021/06/14 03:51:32;;;;;;;0.40;0.30;;;14.80;97.00;;;;;;4963395;28;20431;-78
2021/06/14 03:53:58;;;;;;;0.40;0.30;;;14.90;99.70;;;;;;4961884;28;20447;-78
2021/06/14 03:56:30;;;;;;;0.40;0.20;;;14.80;97.50;;;;;;4960671;28;20404;-78
2021/06/14 03:58:56;;;;;;;0.40;0.20;;;14.70;99.10;;;;;;4960184;28;20424;-78
2021/06/14 04:01:23;;;;;;;0.40;0.30;;;14.80;99.00;;;;;;4958800;28;20483;-78
2021/06/14 04:04:06;;;;;;;0.40;0.20;;;14.70;97.70;;;;;;4961022;28;21595;-78
2021/06/14 04:06:32;;;;;;;0.40;0.20;;;14.70;99.20;;;;;;4950680;28;20439;-78
2021/06/14 04:08:58;;;;;;;0.40;0.20;;;14.70;99.00;;;;;;4948521;28;20491;-78
2021/06/14 04:11:24;;;;;;;0.40;0.30;;;14.80;99.90;;;;;;4957382;28;20804;-79
2021/06/14 04:13:50;;;;;;;0.40;0.30;;;14.80;99.30;;;;;;4959728;28;20448;-79
2021/06/14 04:16:20;;;;;;;0.40;0.30;;;14.80;98.90;;;;;;4958612;28;20495;-80
2021/06/14 04:18:46;;;;;;;0.40;0.20;;;14.70;99.50;;;;;;4959216;28;20507;-78
2021/06/14 04:21:11;;;;;;;0.40;0.20;;;14.70;99.60;;;;;;4945756;28;20458;-78
2021/06/14 04:23:38;;;;;;;0.40;0.20;;;14.80;97.80;;;;;;4957303;28;20388;-78
2021/06/14 04:26:09;;;;;;;0.40;0.30;;;14.90;97.90;;;;;;4958294;28;20392;-78
2021/06/14 04:28:34;;;;;;;0.40;0.30;;;15.00;99.90;;;;;;4958793;28;20392;-77
2021/06/14 04:31:00;;;;;;;0.40;0.20;;;14.90;99.00;;;;;;4958200;28;20468;-76
2021/06/14 04:33:26;;;;;;;0.40;0.30;;;14.90;97.60;;;;;;4986980;28;20420;-75
2021/06/14 04:35:51;;;;;;;0.40;0.20;;;14.90;97.40;;;;;;4972233;28;20450;-75
2021/06/14 04:38:17;;;;;;;0.40;0.30;;;15.00;97.60;;;;;;4970462;28;20388;-76
2021/06/14 04:40:43;;;;;;;0.40;0.30;;;15.00;98.80;;;;;;4953453;28;20404;-75
2021/06/14 04:43:08;;;;;;;0.40;0.30;;;15.00;99.30;;;;;;4970557;28;20550;-75
2021/06/14 04:45:34;;;;;;;0.40;0.20;;;14.90;99.50;;;;;;4971194;28;20384;-77
2021/06/14 04:48:00;;;;;;;0.40;0.30;;;14.90;99.90;;;;;;4970668;28;20427;-77
2021/06/14 04:50:25;;;;;;;0.40;0.30;;;14.90;98.90;;;;;;4971610;28;20503;-76
2021/06/14 04:52:51;;;;;;;0.40;0.30;;;14.90;99.90;;;;;;4971945;28;20408;-76
2021/06/14 04:55:17;;;;;;;0.40;0.20;;;14.90;99.00;;;;;;4970665;28;20385;-76
2021/06/14 04:57:42;;;;;;;0.40;0.30;;;14.90;99.30;;;;;;4971494;28;20392;-76
2021/06/14 05:00:10;;;;;;;0.40;0.30;;;15.00;99.90;;;;;;4953000;28;20405;-75
2021/06/14 05:02:36;;;;;;;0.40;0.30;;;15.20;97.10;;;;;;4955461;28;20396;-76
2021/06/14 05:05:02;;;;;;;0.40;0.20;;;15.20;98.80;;;;;;4970521;28;20395;-75
2021/06/14 05:07:28;;;;;;;0.40;0.30;;;15.30;99.60;;;;;;4971096;28;20479;-75
2021/06/14 05:09:55;;;;;;;0.40;0.30;;;15.30;99.90;;;;;;4971021;28;20464;-76
2021/06/14 05:12:21;;;;;;;0.40;0.30;;;15.20;99.90;;;;;;4970525;28;20423;-75
2021/06/14 05:14:47;;;;;;;0.40;0.30;;;15.00;99.90;;;;;;4970990;28;20772;-75
2021/06/14 05:17:12;;;;;;;0.40;0.30;;;15.10;99.90;;;;;;4970402;28;20447;-76
2021/06/14 05:19:38;;;;;;;0.40;0.30;;;15.20;99.30;;;;;;4971255;28;20482;-76
2021/06/14 05:22:05;;;;;;;0.40;0.20;;;15.30;98.90;;;;;;4969975;28;20475;-77
2021/06/14 05:24:31;;;;;;;0.40;0.30;;;15.30;99.20;;;;;;4986431;28;20515;-76
2021/06/14 05:26:57;;;;;;;0.40;0.20;;;15.20;99.90;;;;;;4970991;28;20460;-79
2021/06/14 05:29:23;;;;;;;0.40;0.30;;;15.50;99.60;;;;;;4970579;28;20473;-76
2021/06/14 05:31:49;;;;;;;0.40;0.27;;;15.60;97.80;;;;;;4970718;28;20964;-75
2021/06/14 05:34:15;;;;;;;0.40;0.20;;;15.70;96.90;;;;;;4970491;28;20923;-77
2021/06/14 05:36:41;;;;;;;0.40;0.20;;;15.80;96.20;;;;;;4970608;28;20900;-77
2021/06/14 05:39:06;;;;;;;0.40;0.20;;;16.00;96.30;;;;;;4970626;28;20431;-77
2021/06/14 05:41:32;;;;;;;0.50;0.40;;;15.90;97.40;;;;;;4954114;28;20479;-77
2021/06/14 05:43:58;;;;;;;0.40;0.20;;;15.80;95.90;;;;;;4970735;28;20443;-79
2021/06/14 05:46:25;;;;;;;0.40;0.20;;;15.80;97.10;;;;;;4971055;28;20467;-77
2021/06/14 05:48:50;;;;;;;0.40;0.20;;;15.90;97.30;;;;;;4970708;28;20384;-77
2021/06/14 05:51:16;;;;;;;0.40;0.20;;;16.00;98.10;;;;;;4971552;28;20880;-78
2021/06/14 05:53:42;;;;;;;0.40;0.20;;;16.10;97.60;;;;;;4970320;28;20420;-77
2021/06/14 05:56:07;;;;;;;0.40;0.20;;;16.20;96.20;;;;;;4954135;28;20392;-77
2021/06/14 05:58:33;;;;;;;0.40;0.30;;;16.20;96.60;;;;;;4972096;28;20849;-78
2021/06/14 06:00:59;;;;;;;0.40;0.30;;;16.40;95.30;;;;;;4970883;28;20388;-79
2021/06/14 06:03:25;;;;;;;0.40;0.20;;;16.50;95.00;;;;;;4969835;28;20921;-78
2021/06/14 06:05:50;;;;;;;0.40;0.20;;;16.60;94.00;;;;;;4971341;28;20392;-76
2021/06/14 06:08:16;;;;;;;0.40;0.20;;;16.50;95.50;;;;;;4970537;28;20400;-77
2021/06/14 06:10:42;;;;;;;0.40;0.20;;;16.60;95.40;;;;;;4974562;28;20391;-77
2021/06/14 06:13:07;;;;;;;0.40;0.20;;;16.80;94.20;;;;;;4973892;28;20903;-78
2021/06/14 06:15:33;;;;;;;0.40;0.30;;;16.80;93.30;;;;;;4975680;28;20422;-77
2021/06/14 06:17:58;;;;;;;0.40;0.20;;;16.80;93.20;;;;;;4975334;28;20459;-77
2021/06/14 06:20:24;;;;;;;0.40;0.20;;;16.90;93.80;;;;;;4974329;28;20420;-76
2021/06/14 06:22:51;;;;;;;0.40;0.30;;;17.00;92.80;;;;;;4961405;28;20406;-77
2021/06/14 06:25:20;;;;;;;0.40;0.20;;;17.20;92.60;;;;;;4992426;28;20457;-76
2021/06/14 06:27:47;;;;;;;0.40;0.20;;;17.30;92.40;;;;;;4975356;28;20388;-76
2021/06/14 06:30:16;;;;;;;0.40;0.30;;;17.40;91.90;;;;;;4974066;28;20432;-76
2021/06/14 06:32:42;;;;;;;0.40;0.30;;;17.50;92.60;;;;;;4975136;28;20520;-77
2021/06/14 06:35:08;;;;;;;0.40;0.30;;;17.50;92.50;;;;;;4958803;28;20396;-77
2021/06/14 06:37:34;;;;;;;0.40;0.20;;;17.60;92.80;;;;;;4978178;28;20488;-78
2021/06/14 06:39:59;;;;;;;0.40;0.30;;;17.60;94.00;;;;;;4967223;28;20386;-78
2021/06/14 06:42:25;;;;;;;0.40;0.30;;;17.50;92.80;;;;;;4982278;28;20911;-79
2021/06/14 06:44:52;;;;;;;0.40;0.30;;;17.70;92.20;;;;;;4997701;28;21156;-76
2021/06/14 06:47:18;;;;;;;0.40;0.30;;;17.80;91.60;;;;;;4976210;28;20814;-77
2021/06/14 06:49:43;;;;;;;0.40;0.30;;;18.00;91.90;;;;;;4957281;28;20392;-77
2021/06/14 06:52:11;;;;;;;0.40;0.30;;;18.00;90.90;;;;;;4973248;28;20833;-78
2021/06/14 06:54:36;;;;;;;0.40;0.30;;;18.20;90.90;;;;;;4973767;28;20396;-78
2021/06/14 06:57:02;;;;;;;0.40;0.20;;;18.30;90.40;;;;;;4974159;28;20388;-78
2021/06/14 06:59:30;;;;;;;0.50;0.40;;;18.40;90.40;;;;;;4973764;28;20400;-79
2021/06/14 07:01:56;;;;;;;0.40;0.22;;;18.40;90.80;;;;;;4973834;28;20411;-78
2021/06/14 07:04:22;;;;;;;0.40;0.30;;;18.40;91.20;;;;;;4955886;28;20396;-78
2021/06/14 07:06:47;;;;;;;0.40;0.30;;;18.40;90.90;;;;;;4974139;28;20871;-79
2021/06/14 07:09:13;;;;;;;0.40;0.30;;;18.40;90.90;;;;;;4973561;28;20399;-78
2021/06/14 07:11:40;;;;;;;0.40;0.30;;;18.50;90.90;;;;;;4974271;28;20808;-78
2021/06/14 07:14:05;;;;;;;0.40;0.30;;;18.50;91.10;;;;;;4956040;28;20440;-81
2021/06/14 07:16:33;;;;;;;0.40;0.30;;;18.60;91.20;;;;;;4956760;28;20460;-78
2021/06/14 07:19:00;;;;;;;0.40;0.30;;;18.70;90.90;;;;;;4974250;28;20895;-78
2021/06/14 07:21:27;;;;;;;0.40;0.30;;;19.00;90.60;;;;;;4972225;28;20493;-78
2021/06/14 07:23:53;;;;;;;0.40;0.20;;;19.00;90.50;;;;;;4987184;28;20394;-79
2021/06/14 07:26:19;;;;;;;0.40;0.30;;;18.90;90.70;;;;;;4977201;28;20396;-79
2021/06/14 07:28:45;;;;;;;0.40;0.20;;;19.00;90.70;;;;;;4973169;28;20491;-79
2021/06/14 07:31:11;;;;;;;0.40;0.30;;;19.00;91.20;;;;;;4972375;28;20420;-81
2021/06/14 07:33:38;;;;;;;0.40;0.30;;;18.90;90.60;;;;;;4974015;28;20412;-79
2021/06/14 07:36:05;;;;;;;0.40;0.20;;;19.10;90.80;;;;;;4974339;28;20442;-79
2021/06/14 07:38:31;;;;;;;0.40;0.30;;;19.00;90.70;;;;;;4974087;28;20380;-79
2021/06/14 07:40:57;;;;;;;0.40;0.30;;;19.00;90.60;;;;;;4974097;28;20756;-79
2021/06/14 07:43:23;;;;;;;0.40;0.30;;;19.20;90.50;;;;;;4972750;28;20411;-76
2021/06/14 07:45:50;;;;;;;0.40;0.20;;;19.20;90.10;;;;;;4973463;28;20876;-76
2021/06/14 07:48:16;;;;;;;0.40;0.20;;;19.20;90.00;;;;;;4973212;28;20479;-78
2021/06/14 07:50:44;;;;;;;0.40;0.20;;;19.30;90.00;;;;;;4973612;28;20404;-79
2021/06/14 07:53:10;;;;;;;0.40;0.20;;;19.30;90.30;;;;;;4972488;28;20420;-78
2021/06/14 07:55:37;;;;;;;0.40;0.30;;;19.20;89.00;;;;;;4973820;28;20475;-76
2021/06/14 07:58:03;;;;;;;0.40;0.30;;;19.40;88.90;;;;;;4973488;28;20426;-76
2021/06/14 08:00:29;;;;;;;0.40;0.20;;;19.60;87.80;;;;;;4972211;28;20528;-75
2021/06/14 08:02:55;;;;;;;0.40;0.20;;;19.60;88.10;;;;;;4973408;28;20819;-77
2021/06/14 08:05:21;;;;;;;0.40;0.30;;;19.70;88.50;;;;;;4972605;28;20524;-76
2021/06/14 08:07:47;;;;;;;0.47;0.40;;;19.70;89.30;;;;;;4972624;28;20833;-74
2021/06/14 08:10:16;;;;;;;0.40;0.20;;;19.80;87.60;;;;;;4972640;28;20389;-77
2021/06/14 08:12:49;;;;;;;0.40;0.30;;;19.80;87.80;;;;;;4955571;28;20506;-75
2021/06/14 08:15:20;;;;;;;0.40;0.20;;;19.80;87.50;;;;;;4972316;28;20443;-75
2021/06/14 08:17:47;;;;;;;0.40;0.20;;;20.00;86.00;;;;;;4973295;28;20452;-76
2021/06/14 08:20:23;;;;;;;0.40;0.20;;;20.10;86.40;;;;;;4972495;28;20400;-76
2021/06/14 08:25:34;;;;;;;0.40;0.30;;;20.00;85.60;;;;;;4989022;28;20836;-77
2021/06/14 08:28:00;;;;;;;0.40;0.30;;;20.00;85.60;;;;;;4955522;28;20392;-79
2021/06/14 08:30:28;;;;;;;0.40;0.20;;;20.10;84.30;;;;;;4986970;28;20396;-77
2021/06/14 08:32:55;;;;;;;0.40;0.20;;;20.30;86.00;;;;;;4971820;28;20503;-75
2021/06/14 08:35:24;;;;;;;0.40;0.30;;;20.50;84.20;;;;;;4971898;28;20388;-77
2021/06/14 08:37:51;;;;;;;0.40;0.20;;;20.40;84.70;;;;;;4955431;28;20404;-75
2021/06/14 08:40:21;;;;;;;0.40;0.20;;;20.50;83.40;;;;;;4971514;28;20439;-77
2021/06/14 08:42:47;;;;;;;0.40;0.30;;;20.60;84.70;;;;;;4972491;28;20967;-77
2021/06/14 08:45:15;;;;;;;0.40;0.30;;;20.60;83.40;;;;;;4971520;28;20414;-78
2021/06/14 08:47:43;;;;;;;0.40;0.20;;;20.40;82.20;;;;;;4972351;28;20522;-76
2021/06/14 08:50:12;;;;;;;0.50;0.50;;;20.60;84.00;;;;;;4954812;28;20898;-79
2021/06/14 08:52:39;;;;;;;0.40;0.30;;;20.70;82.20;;;;;;4972546;28;20420;-77
2021/06/14 08:55:08;;;;;;;0.40;0.30;;;20.70;82.20;;;;;;4971910;28;20407;-78
2021/06/14 08:57:34;;;;;;;0.40;0.30;;;20.70;80.10;;;;;;4971550;28;20396;-77
2021/06/14 08:59:59;;;;;;;0.40;0.30;;;20.80;80.80;;;;;;4986910;28;20875;-77
2021/06/14 09:02:25;;;;;;;0.40;0.20;;;20.70;81.70;;;;;;4971800;28;20400;-77
2021/06/14 09:04:51;;;;;;;0.40;0.30;;;20.80;81.70;;;;;;4972340;28;20892;-77
2021/06/14 09:07:18;;;;;;;0.40;0.25;;;21.00;82.60;;;;;;4971595;28;20403;-78
2021/06/14 09:09:45;;;;;;;0.40;0.28;;;21.10;80.90;;;;;;4971829;28;20408;-77
2021/06/14 09:12:11;;;;;;;0.40;0.20;;;21.20;81.10;;;;;;4971950;28;20433;-78
2021/06/14 09:14:39;;;;;;;0.40;0.30;;;21.40;80.10;;;;;;4971491;28;20895;-76
2021/06/14 09:17:08;;;;;;;0.40;0.40;;;21.40;80.30;;;;;;4954587;28;20411;-78
2021/06/14 09:19:42;;;;;;;0.40;0.30;;;21.40;81.10;;;;;;4971134;28;20426;-76
2021/06/14 09:22:19;;;;;;;0.40;0.30;;;21.30;79.80;;;;;;4972143;28;20397;-78
2021/06/14 09:24:57;;;;;;;0.40;0.20;;;21.40;79.80;;;;;;4972066;28;20404;-78
2021/06/14 09:27:32;;;;;;;0.40;0.20;;;21.40;79.40;;;;;;4971146;28;20404;-78
2021/06/14 09:30:13;;;;;;;0.40;0.30;;;21.40;81.50;;;;;;4971643;28;20904;-78
2021/06/14 09:32:59;;;;;;;0.40;0.30;;;21.50;81.80;;;;;;4971329;28;20461;-78
2021/06/14 09:35:29;;;;;;;0.40;0.30;;;21.40;81.20;;;;;;4952185;29;20394;-78
2021/06/14 09:38:00;;;;;;;0.70;0.70;;;21.50;81.80;;;;;;4984359;28;20388;-78
2021/06/14 09:40:48;;;;;;;0.40;0.20;;;21.60;82.50;;;;;;4953563;28;20593;-78
2021/06/14 09:43:32;;;;;;;0.40;0.30;;;21.70;80.80;;;;;;4970664;28;20423;-80
2021/06/14 09:46:00;;;;;;;0.40;0.20;;;21.70;80.90;;;;;;4956433;29;20726;-78
2021/06/14 09:48:31;;;;;;;0.40;0.20;;;22.00;81.20;;;;;;4971716;28;20446;-78
2021/06/14 09:51:04;;;;;;;0.40;0.20;;;22.10;77.70;;;;;;4958262;28;20900;-78
2021/06/14 09:53:35;;;;;;;0.40;0.20;;;22.10;81.80;;;;;;4974830;28;20989;-78
2021/06/14 09:56:14;;;;;;;0.40;0.20;;;22.30;81.30;;;;;;4975429;28;20748;-75
2021/06/14 09:58:42;;;;;;;0.40;0.30;;;22.40;77.70;;;;;;4975369;28;20458;-78
2021/06/14 10:01:08;;;;;;;0.40;0.20;;;22.40;76.20;;;;;;4975490;28;20432;-77
2021/06/14 10:03:45;;;;;;;0.40;0.20;;;22.60;76.90;;;;;;4975103;28;20431;-77
2021/06/14 10:06:11;;;;;;;0.40;0.25;;;22.50;75.10;;;;;;4958058;28;20826;-78
2021/06/14 10:08:37;;;;;;;0.40;0.30;;;22.50;75.20;;;;;;4974743;28;20403;-78
2021/06/14 10:11:16;;;;;;;0.40;0.22;;;22.50;73.90;;;;;;4975666;28;20469;-79
2021/06/14 10:13:45;;;;;;;0.40;0.20;;;22.60;75.90;;;;;;4975037;28;20493;-78
2021/06/14 10:16:12;;;;;;;0.40;0.20;;;22.80;73.50;;;;;;4975152;28;20404;-78
2021/06/14 10:18:43;;;;;;;0.40;0.30;;;22.90;73.20;;;;;;4974854;28;20419;-78
2021/06/14 10:21:31;;;;;;;0.40;0.20;;;23.00;72.10;;;;;;4974983;28;20393;-74
2021/06/14 10:24:05;;;;;;;0.40;0.30;;;23.00;71.30;;;;;;4970551;28;20417;-77
2021/06/14 10:26:32;;;;;;;0.40;0.20;;;23.00;71.50;;;;;;4988503;28;20404;-78
2021/06/14 10:28:57;;;;;;;0.40;0.30;;;23.00;72.60;;;;;;4975176;28;20467;-78
2021/06/14 10:31:23;;;;;;;0.40;0.30;;;23.20;70.50;;;;;;4956796;28;20491;-77
2021/06/14 10:33:53;;;;;;;0.40;0.20;;;23.20;71.70;;;;;;4975085;28;20792;-77
2021/06/14 10:36:26;;;;;;;0.40;0.20;;;23.10;70.50;;;;;;4974660;28;20396;-80
2021/06/14 10:38:53;;;;;;;0.40;0.20;;;23.20;71.80;;;;;;4974759;28;20423;-77
2021/06/14 10:41:20;;;;;;;0.40;0.20;;;23.30;68.20;;;;;;4974041;28;20411;-79
2021/06/14 10:43:48;;;;;;;0.40;0.20;;;23.60;68.30;;;;;;4974800;28;20417;-77
2021/06/14 10:46:17;;;;;;;0.40;0.20;;;23.50;69.10;;;;;;4974827;28;20404;-78
2021/06/14 10:48:45;;;;;;;0.40;0.20;;;23.60;68.20;;;;;;4974456;28;20411;-77
2021/06/14 10:51:13;;;;;;;0.40;0.30;;;23.60;68.60;;;;;;4974711;28;20400;-74
2021/06/14 10:53:39;;;;;;;0.40;0.20;;;23.60;68.40;;;;;;4973111;28;20508;-75
2021/06/14 10:56:05;;;;;;;0.40;0.20;;;23.70;70.50;;;;;;4957093;28;20904;-75
2021/06/14 10:58:32;;;;;;;0.40;0.30;;;23.90;67.90;;;;;;4973830;28;20432;-76
2021/06/14 11:01:10;;;;;;;0.40;0.30;;;23.70;67.60;;;;;;4974559;28;20734;-78
2021/06/14 11:03:41;;;;;;;0.40;0.30;;;23.90;67.60;;;;;;4974083;28;20608;-76
2021/06/14 11:06:23;;;;;;;0.40;0.20;;;24.10;67.40;;;;;;4974405;28;20800;-74
2021/06/14 11:08:56;;;;;;;0.40;0.30;;;24.10;67.30;;;;;;4974184;28;20412;-77
2021/06/14 11:11:22;;;;;;;0.40;0.30;;;24.40;67.40;;;;;;4973658;28;20488;-79
2021/06/14 11:13:49;;;;;;;0.40;0.20;;;24.40;67.00;;;;;;4973837;28;20531;-79
2021/06/14 11:16:16;;;;;;;0.40;0.25;;;24.60;69.80;;;;;;4957036;28;20931;-79
2021/06/14 11:18:42;;;;;;;0.40;0.30;;;24.50;66.80;;;;;;4973657;28;20403;-80
2021/06/14 11:21:14;;;;;;;0.40;0.20;;;24.70;68.60;;;;;;4974480;28;20388;-78
2021/06/14 11:23:44;;;;;;;0.40;0.30;;;25.10;66.70;;;;;;4983602;28;20406;-80
2021/06/14 11:26:11;;;;;;;0.40;0.20;;;25.10;68.30;;;;;;4989686;28;20742;-77
2021/06/14 11:28:40;;;;;;;0.40;0.20;;;25.10;64.50;;;;;;4988633;28;20544;-76
2021/06/14 11:31:18;;;;;;;0.40;0.20;;;25.30;64.40;;;;;;4973899;28;20396;-78
2021/06/14 11:33:45;;;;;;;0.40;0.30;;;25.50;68.80;;;;;;4973295;28;20487;-78
2021/06/14 11:36:23;;;;;;;0.40;0.20;;;26.00;70.10;;;;;;4974235;28;20391;-79
2021/06/14 11:38:50;;;;;;;0.40;0.20;;;25.70;63.30;;;;;;4973875;28;20492;-77
2021/06/14 11:41:28;;;;;;;0.40;0.30;;;26.20;66.20;;;;;;4973996;28;20420;-79
2021/06/14 11:44:29;;;;;;;0.40;0.30;;;26.50;64.50;;;;;;4974046;28;20421;-79
2021/06/14 11:47:12;;;;;;;0.40;0.28;;;26.90;62.30;;;;;;4956271;28;20400;-79
2021/06/14 11:49:38;;;;;;;0.40;0.30;;;26.90;63.50;;;;;;4973220;28;20394;-80
2021/06/14 11:52:18;;;;;;;0.40;0.30;;;27.40;59.90;;;;;;4973607;28;20392;-78
2021/06/14 11:54:44;;;;;;;0.40;0.20;;;28.20;59.00;;;;;;4972842;28;20408;-76
2021/06/14 11:57:10;;;;;;;0.40;0.20;;;28.30;58.60;;;;;;4988327;28;20880;-77
2021/06/14 11:59:37;;;;;;;0.40;0.30;;;27.40;58.80;;;;;;4972982;28;20392;-76
2021/06/14 12:02:04;;;;;;;0.40;0.20;;;27.50;61.90;;;;;;4972940;28;20775;-76
2021/06/14 12:04:30;;;;;;;0.40;0.20;;;27.40;62.50;;;;;;4954915;28;20408;-75
2021/06/14 12:06:59;;;;;;;0.40;0.30;;;27.90;60.80;;;;;;4972623;28;20432;-76
2021/06/14 12:09:29;;;;;;;0.40;0.20;;;27.00;62.00;;;;;;4972797;28;20438;-77
2021/06/14 12:12:00;;;;;;;0.50;0.30;;;27.10;61.50;;;;;;4973179;28;20436;-77
2021/06/14 12:14:27;;;;;;;0.40;0.30;;;27.40;61.70;;;;;;4955234;28;20440;-79
2021/06/14 12:17:04;;;;;;;0.40;0.20;;;27.40;62.10;;;;;;4972921;28;20880;-77
2021/06/14 12:19:35;;;;;;;0.40;0.20;;;27.80;61.60;;;;;;4972246;28;20396;-79
2021/06/14 12:22:06;;;;;;;0.40;0.30;;;27.70;61.10;;;;;;4973326;28;20384;-79
2021/06/14 12:24:36;;;;;;;0.40;0.20;;;28.00;60.20;;;;;;4990065;28;20804;-79
2021/06/14 12:27:07;;;;;;;0.40;0.30;;;28.20;60.70;;;;;;4982612;28;20475;-78
2021/06/14 12:29:34;;;;;;;0.40;0.20;;;27.90;60.80;;;;;;4954464;28;20560;-78
2021/06/14 12:32:11;;;;;;;0.40;0.20;;;28.10;59.00;;;;;;4973291;28;20384;-78
2021/06/14 12:34:40;;;;;;;0.40;0.20;;;28.70;63.30;;;;;;4987117;28;20511;-78
2021/06/14 12:37:13;;;;;;;0.40;0.30;;;28.70;59.60;;;;;;4987411;28;20764;-79
2021/06/14 12:39:41;;;;;;;0.40;0.30;;;28.60;60.50;;;;;;4971777;28;20435;-79
2021/06/14 12:42:19;;;;;;;0.40;0.20;;;28.80;58.40;;;;;;4955168;28;20436;-79
2021/06/14 12:44:56;;;;;;;0.50;0.20;;;28.60;59.80;;;;;;4972222;28;21039;-78
2021/06/14 12:47:23;;;;;;;0.50;0.30;;;28.40;60.10;;;;;;4972571;28;20412;-79
2021/06/14 12:49:50;;;;;;;0.40;0.20;;;27.90;61.10;;;;;;4972001;28;20880;-78
2021/06/14 12:52:18;;;;;;;0.40;0.30;;;27.80;60.70;;;;;;4972908;28;20392;-78
2021/06/14 12:54:44;;;;;;;0.40;0.20;;;28.00;63.60;;;;;;4971524;28;20404;-79
2021/06/14 12:57:10;;;;;;;0.40;0.20;;;28.10;63.80;;;;;;4972600;28;20392;-79